createdAt,value
2022-10-18T00:00:00.666Z,5.80
2022-10-18T00:02:27.352Z,5.79
2022-10-18T00:04:53.971Z,4.82
2022-10-18T00:07:20.563Z,5.51
2022-10-18T00:09:47.158Z,5.75
2022-10-18T00:12:13.864Z,5.69
2022-10-18T00:14:40.430Z,4.78
2022-10-18T00:17:07.159Z,5.68
2022-10-18T00:19:33.711Z,5.23
2022-10-18T00:22:00.267Z,5.26
2022-10-18T00:24:26.845Z,5.24
2022-10-18T00:26:53.396Z,5.01
2022-10-18T00:29:20.018Z,5.11
2022-10-18T00:31:46.573Z,5.42
2022-10-18T00:34:15.547Z,5.07
2022-10-18T00:36:43.962Z,5.38
2022-10-18T00:39:17.546Z,5.39
2022-10-18T00:41:44.708Z,5.50
2022-10-18T00:44:11.224Z,5.48
2022-10-18T00:46:43.561Z,5.48
2022-10-18T00:49:18.948Z,5.43
2022-10-18T00:52:00.564Z,4.90
2022-10-18T00:54:29.958Z,5.38
2022-10-18T00:56:57.126Z,5.16
2022-10-18T00:59:24.686Z,5.19
2022-10-18T01:01:51.353Z,5.48
2022-10-18T01:04:19.406Z,5.46
2022-10-18T01:06:59.615Z,5.52
2022-10-18T01:09:41.599Z,5.32
2022-10-18T01:12:53.412Z,5.49
2022-10-18T01:15:23.054Z,5.39
2022-10-18T01:18:05.276Z,5.11
2022-10-18T01:20:59.790Z,5.53
2022-10-18T01:24:00.127Z,5.50
2022-10-18T01:26:52.939Z,5.43
2022-10-18T01:29:47.775Z,5.41
2022-10-18T01:32:19.769Z,5.48
2022-10-18T01:34:49.010Z,5.17
2022-10-18T01:37:19.988Z,4.72
2022-10-18T01:39:48.563Z,4.96
2022-10-18T01:42:20.283Z,4.61
2022-10-18T01:44:48.423Z,4.76
2022-10-18T01:47:16.827Z,5.35
2022-10-18T01:49:43.431Z,4.77
2022-10-18T01:52:14.300Z,5.37
2022-10-18T01:54:46.290Z,5.00
2022-10-18T01:57:36.989Z,5.40
2022-10-18T02:00:12.846Z,5.33
2022-10-18T02:03:05.665Z,5.15
2022-10-18T02:06:03.545Z,5.16
2022-10-18T02:08:44.033Z,5.07
2022-10-18T02:11:13.720Z,5.02
2022-10-18T02:13:49.660Z,5.11
2022-10-18T02:16:48.440Z,5.10
2022-10-18T02:21:54.729Z,4.08
2022-10-18T02:24:23.812Z,5.17
2022-10-18T02:26:50.586Z,4.47
2022-10-18T02:29:17.478Z,5.14
2022-10-18T02:31:46.592Z,5.16
2022-10-18T02:34:19.144Z,5.25
2022-10-18T02:36:52.974Z,5.27
2022-10-18T02:39:25.173Z,2.59
2022-10-18T02:41:54.372Z,4.76
2022-10-18T02:44:21.100Z,5.04
2022-10-18T02:46:48.174Z,3.30
2022-10-18T02:49:14.786Z,5.01
2022-10-18T02:51:41.639Z,4.86
2022-10-18T02:54:08.570Z,4.93
2022-10-18T02:56:35.785Z,4.76
2022-10-18T02:59:03.736Z,4.21
2022-10-18T03:01:30.469Z,4.66
2022-10-18T03:03:57.923Z,4.54
2022-10-18T03:06:24.498Z,4.47
2022-10-18T03:08:51.165Z,1.86
2022-10-18T03:11:17.797Z,3.81
2022-10-18T03:13:44.473Z,4.03
2022-10-18T03:16:11.958Z,3.49
2022-10-18T03:18:38.543Z,3.76
2022-10-18T03:21:06.989Z,3.71
2022-10-18T03:23:33.989Z,3.79
2022-10-18T03:26:00.790Z,4.15
2022-10-18T03:28:27.632Z,3.79
2022-10-18T03:30:59.199Z,4.32
2022-10-18T03:33:25.806Z,4.45
2022-10-18T03:35:52.350Z,4.17
2022-10-18T03:38:18.930Z,4.57
2022-10-18T03:40:45.513Z,4.48
2022-10-18T03:43:12.103Z,3.96
2022-10-18T03:45:38.688Z,3.52
2022-10-18T03:48:05.676Z,4.45
2022-10-18T03:50:32.276Z,4.16
2022-10-18T03:52:58.983Z,3.54
2022-10-18T03:55:25.679Z,4.47
2022-10-18T03:57:52.308Z,4.49
2022-10-18T04:00:18.905Z,4.36
2022-10-18T04:02:45.557Z,3.96
2022-10-18T04:05:13.022Z,4.43
2022-10-18T04:07:39.645Z,4.39
2022-10-18T04:10:07.102Z,3.18
2022-10-18T04:12:33.968Z,4.18
2022-10-18T04:15:00.778Z,3.85
2022-10-18T04:17:27.327Z,4.01
2022-10-18T04:19:53.946Z,3.49
2022-10-18T04:22:20.510Z,3.77
2022-10-18T04:24:47.121Z,4.20
2022-10-18T04:27:13.727Z,3.78
2022-10-18T04:29:40.384Z,4.31
2022-10-18T04:32:06.945Z,4.39
2022-10-18T04:34:33.582Z,4.44
2022-10-18T04:37:00.245Z,3.87
2022-10-18T04:39:26.931Z,4.13
2022-10-18T04:41:53.607Z,4.44
2022-10-18T04:44:20.166Z,4.35
2022-10-18T04:46:46.751Z,4.22
2022-10-18T04:49:13.384Z,4.27
2022-10-18T04:51:40.228Z,4.40
2022-10-18T04:54:06.834Z,4.72
2022-10-18T04:56:33.475Z,4.65
2022-10-18T04:59:00.086Z,4.55
2022-10-18T05:01:26.794Z,4.44
2022-10-18T05:03:54.533Z,4.34
2022-10-18T05:06:21.915Z,3.97
2022-10-18T05:08:49.420Z,4.13
2022-10-18T05:11:15.997Z,4.21
2022-10-18T05:13:44.945Z,4.30
2022-10-18T05:16:13.840Z,4.28
2022-10-18T05:18:40.523Z,3.75
2022-10-18T05:21:07.113Z,4.18
2022-10-18T05:23:33.801Z,3.94
2022-10-18T05:26:06.187Z,4.07
2022-10-18T05:28:39.270Z,2.93
2022-10-18T05:31:08.601Z,4.52
2022-10-18T05:33:35.515Z,4.73
2022-10-18T05:36:02.111Z,5.00
2022-10-18T05:38:31.038Z,5.10
2022-10-18T05:40:58.432Z,4.66
2022-10-18T05:43:28.873Z,4.56
2022-10-18T05:45:55.795Z,5.09
2022-10-18T05:48:22.753Z,5.05
2022-10-18T05:50:49.428Z,5.10
2022-10-18T05:53:35.621Z,6.05
2022-10-18T05:56:03.212Z,5.43
2022-10-18T05:58:29.823Z,6.26
2022-10-18T06:00:59.926Z,6.52
2022-10-18T06:03:27.724Z,6.55
2022-10-18T06:06:00.259Z,6.38
2022-10-18T06:08:27.287Z,7.38
2022-10-18T06:10:53.920Z,7.07
2022-10-18T06:13:20.460Z,7.99
2022-10-18T06:15:47.029Z,8.19
2022-10-18T06:18:13.583Z,8.43
2022-10-18T06:20:40.136Z,8.74
2022-10-18T06:23:06.908Z,8.60
2022-10-18T06:25:33.536Z,9.16
2022-10-18T06:28:00.079Z,8.94
2022-10-18T06:30:26.692Z,9.57
2022-10-18T06:32:53.338Z,9.73
2022-10-18T06:35:19.906Z,9.16
2022-10-18T06:37:46.463Z,10.11
2022-10-18T06:40:13.015Z,10.28
2022-10-18T06:42:40.323Z,9.54
2022-10-18T06:45:07.591Z,10.44
2022-10-18T06:47:34.215Z,10.85
2022-10-18T06:50:00.806Z,10.77
2022-10-18T06:52:27.378Z,11.02
2022-10-18T06:54:54.083Z,10.96
2022-10-18T06:57:21.650Z,11.42
2022-10-18T06:59:49.976Z,11.03
2022-10-18T07:02:17.501Z,11.85
2022-10-18T07:04:44.218Z,9.40
2022-10-18T07:07:10.922Z,12.30
2022-10-18T07:09:37.508Z,11.85
2022-10-18T07:12:04.383Z,12.46
2022-10-18T07:14:30.944Z,12.65
2022-10-18T07:17:00.720Z,12.05
2022-10-18T07:19:27.396Z,13.01
2022-10-18T07:21:53.963Z,12.76
2022-10-18T07:24:20.581Z,13.21
2022-10-18T07:26:47.219Z,13.08
2022-10-18T07:29:13.790Z,12.80
2022-10-18T07:31:41.095Z,13.82
2022-10-18T07:34:10.912Z,13.68
2022-10-18T07:36:37.588Z,12.70
2022-10-18T07:39:04.905Z,14.26
2022-10-18T07:41:33.648Z,14.19
2022-10-18T07:44:01.407Z,14.24
2022-10-18T07:46:28.051Z,14.40
2022-10-18T07:48:54.985Z,14.54
2022-10-18T07:51:22.284Z,14.08
2022-10-18T07:53:48.848Z,14.76
2022-10-18T07:56:20.618Z,14.05
2022-10-18T07:58:51.259Z,15.06
2022-10-18T08:01:19.155Z,14.75
2022-10-18T08:03:46.273Z,15.45
2022-10-18T08:06:15.172Z,15.01
2022-10-18T08:08:42.491Z,15.66
2022-10-18T08:11:15.657Z,15.75
2022-10-18T08:13:43.328Z,15.96
2022-10-18T08:16:17.725Z,16.18
2022-10-18T08:18:44.376Z,16.32
2022-10-18T08:21:13.183Z,15.44
2022-10-18T08:23:40.603Z,16.22
2022-10-18T08:26:10.555Z,16.76
2022-10-18T08:28:37.829Z,16.35
2022-10-18T08:31:06.595Z,16.84
2022-10-18T08:33:34.842Z,16.71
2022-10-18T08:36:07.482Z,16.11
2022-10-18T08:38:38.749Z,16.54
2022-10-18T08:41:36.724Z,16.55
2022-10-18T08:44:17.490Z,17.08
2022-10-18T08:46:50.155Z,17.30
2022-10-18T08:49:28.525Z,17.37
2022-10-18T08:51:57.000Z,17.44
2022-10-18T08:54:37.615Z,17.62
2022-10-18T08:57:13.043Z,17.66
2022-10-18T08:59:41.038Z,17.91
2022-10-18T09:02:26.888Z,18.09
2022-10-18T09:05:05.658Z,18.21
2022-10-18T09:08:09.797Z,18.31
2022-10-18T09:10:52.257Z,18.55
2022-10-18T09:13:31.195Z,18.57
2022-10-18T09:16:10.805Z,18.67
2022-10-18T09:19:02.683Z,18.89
2022-10-18T09:21:44.423Z,19.03
2022-10-18T09:24:22.348Z,19.08
2022-10-18T09:26:55.722Z,18.93
2022-10-18T09:29:40.400Z,19.21
2022-10-18T09:32:31.906Z,19.42
2022-10-18T09:35:13.865Z,19.45
2022-10-18T09:37:42.035Z,19.03
2022-10-18T09:40:19.039Z,18.38
2022-10-18T09:43:12.155Z,18.95
2022-10-18T09:45:44.817Z,19.11
2022-10-18T09:48:20.010Z,19.29
2022-10-18T09:50:53.832Z,19.31
2022-10-18T09:53:37.695Z,19.58
2022-10-18T09:56:10.235Z,19.65
2022-10-18T09:58:47.941Z,19.28
2022-10-18T10:01:19.810Z,19.36
2022-10-18T10:03:46.477Z,19.41
2022-10-18T10:06:13.144Z,19.46
2022-10-18T10:08:47.660Z,18.84
2022-10-18T10:11:35.076Z,19.78
2022-10-18T10:14:23.208Z,19.80
2022-10-18T10:17:02.282Z,20.23
2022-10-18T10:19:33.629Z,20.46
2022-10-18T10:22:07.342Z,20.56
2022-10-18T10:24:51.232Z,20.26
2022-10-18T10:27:20.637Z,20.59
2022-10-18T10:29:47.211Z,20.63
2022-10-18T10:32:22.224Z,20.73
2022-10-18T10:34:49.632Z,20.73
2022-10-18T10:37:25.296Z,20.79
2022-10-18T10:40:19.301Z,20.85
2022-10-18T10:43:38.891Z,19.65
2022-10-18T10:46:15.308Z,19.85
2022-10-18T10:48:41.829Z,18.32
2022-10-18T10:51:11.021Z,20.11
2022-10-18T10:53:43.253Z,20.89
2022-10-18T10:56:24.617Z,20.85
2022-10-18T10:58:52.281Z,21.05
2022-10-18T11:01:23.564Z,21.08
2022-10-18T11:03:53.284Z,21.10
2022-10-18T11:06:40.855Z,21.21
2022-10-18T11:09:19.506Z,21.22
2022-10-18T11:11:58.641Z,21.17
2022-10-18T11:14:30.376Z,20.99
2022-10-18T11:16:56.880Z,21.72
2022-10-18T11:19:53.288Z,21.44
2022-10-18T11:22:24.362Z,21.62
2022-10-18T11:24:51.028Z,21.87
2022-10-18T11:27:20.636Z,21.91
2022-10-18T11:30:08.861Z,21.96
2022-10-18T11:33:03.236Z,21.50
2022-10-18T11:35:32.615Z,21.79
2022-10-18T11:38:22.202Z,21.94
2022-10-18T11:41:30.489Z,21.94
2022-10-18T11:44:04.222Z,21.69
2022-10-18T11:46:42.960Z,22.01
2022-10-18T11:49:28.151Z,22.15
2022-10-18T11:52:27.525Z,22.02
2022-10-18T11:55:10.047Z,21.50
2022-10-18T11:57:58.364Z,21.66
2022-10-18T12:01:07.432Z,21.67
2022-10-18T12:03:57.971Z,21.87
2022-10-18T12:06:30.862Z,21.56
2022-10-18T12:09:02.105Z,21.47
2022-10-18T12:11:38.622Z,21.55
2022-10-18T12:14:14.930Z,21.42
2022-10-18T12:16:51.562Z,21.44
2022-10-18T12:19:26.706Z,21.59
2022-10-18T12:21:57.609Z,21.46
2022-10-18T12:24:30.337Z,21.72
2022-10-18T12:27:02.435Z,21.89
2022-10-18T12:29:32.023Z,21.58
2022-10-18T12:32:17.685Z,21.17
2022-10-18T12:34:52.267Z,20.99
2022-10-18T12:37:27.951Z,21.47
2022-10-18T12:40:10.536Z,21.17
2022-10-18T12:42:45.198Z,20.62
2022-10-18T12:45:35.523Z,21.06
2022-10-18T12:48:06.886Z,21.04
2022-10-18T12:50:44.307Z,20.91
2022-10-18T12:53:12.270Z,20.98
2022-10-18T12:55:41.065Z,21.17
2022-10-18T12:58:22.641Z,21.17
2022-10-18T13:00:49.194Z,21.08
2022-10-18T13:03:18.308Z,21.19
2022-10-18T13:05:53.561Z,21.12
2022-10-18T13:08:38.262Z,21.01
2022-10-18T13:11:07.851Z,21.25
2022-10-18T13:13:52.938Z,21.05
2022-10-18T13:16:22.752Z,21.24
2022-10-18T13:19:14.147Z,21.27
2022-10-18T13:21:54.971Z,21.07
2022-10-18T13:24:56.206Z,20.30
2022-10-18T13:27:37.079Z,20.95
2022-10-18T13:30:27.898Z,21.12
2022-10-18T13:33:23.535Z,21.02
2022-10-18T13:36:00.798Z,20.74
2022-10-18T13:38:30.828Z,21.15
2022-10-18T13:41:05.120Z,20.95
2022-10-18T13:43:56.810Z,20.90
2022-10-18T13:46:32.512Z,20.79
2022-10-18T13:49:14.733Z,20.81
2022-10-18T13:51:55.541Z,20.75
2022-10-18T13:54:42.287Z,20.77
2022-10-18T13:57:24.312Z,20.58
2022-10-18T14:00:12.721Z,20.86
2022-10-18T14:02:59.864Z,20.86
2022-10-18T14:05:49.108Z,20.92
2022-10-18T14:08:40.172Z,20.89
2022-10-18T14:11:47.577Z,20.72
2022-10-18T14:14:34.419Z,20.70
2022-10-18T14:17:19.959Z,20.28
2022-10-18T14:19:54.295Z,20.63
2022-10-18T14:22:33.271Z,20.49
2022-10-18T14:25:00.153Z,20.50
2022-10-18T14:27:29.183Z,20.09
2022-10-18T14:30:10.301Z,20.39
2022-10-18T14:32:37.072Z,20.17
2022-10-18T14:35:34.018Z,19.79
2022-10-18T14:37:52.946Z,19.49
2022-10-18T14:40:38.891Z,19.96
2022-10-18T14:43:14.769Z,19.89
2022-10-18T14:45:44.608Z,19.40
2022-10-18T14:48:21.951Z,19.24
2022-10-18T14:51:00.217Z,19.51
2022-10-18T14:53:36.262Z,19.05
2022-10-18T14:56:04.593Z,19.27
2022-10-18T14:58:32.052Z,18.95
2022-10-18T15:00:59.792Z,18.86
2022-10-18T15:03:28.392Z,18.91
2022-10-18T15:05:59.344Z,18.81
2022-10-18T15:08:51.563Z,18.68
2022-10-18T15:11:18.607Z,18.46
2022-10-18T15:13:53.515Z,18.14
2022-10-18T15:16:23.452Z,18.36
2022-10-18T15:19:15.789Z,18.24
2022-10-18T15:22:34.136Z,17.53
2022-10-18T15:25:14.754Z,17.83
2022-10-18T15:28:02.307Z,17.36
2022-10-18T15:30:38.624Z,17.42
2022-10-18T15:33:10.523Z,17.22
2022-10-18T15:35:38.677Z,17.19
2022-10-18T15:38:16.091Z,17.08
2022-10-18T15:40:43.796Z,17.01
2022-10-18T15:43:25.781Z,16.83
2022-10-18T15:46:01.588Z,16.59
2022-10-18T15:48:35.454Z,15.99
2022-10-18T15:51:19.570Z,16.40
2022-10-18T15:53:53.158Z,16.31
2022-10-18T15:56:35.889Z,16.17
2022-10-18T15:59:06.810Z,15.97
2022-10-18T16:01:42.782Z,15.85
2022-10-18T16:04:18.909Z,15.66
2022-10-18T16:06:45.880Z,14.96
2022-10-18T16:09:18.301Z,15.33
2022-10-18T16:11:45.408Z,15.07
2022-10-18T16:14:12.147Z,14.99
2022-10-18T16:16:40.252Z,15.01
2022-10-18T16:19:07.568Z,14.92
2022-10-18T16:21:37.401Z,14.78
2022-10-18T16:24:04.704Z,14.30
2022-10-18T16:26:31.864Z,14.56
2022-10-18T16:28:59.051Z,14.29
2022-10-18T16:32:01.629Z,14.37
2022-10-18T16:34:28.375Z,13.73
2022-10-18T16:36:55.396Z,13.88
2022-10-18T16:39:22.925Z,14.01
2022-10-18T16:41:49.845Z,13.98
2022-10-18T16:44:17.209Z,13.82
2022-10-18T16:46:44.269Z,13.11
2022-10-18T16:49:25.303Z,13.04
2022-10-18T16:51:53.571Z,13.36
2022-10-18T16:54:20.408Z,13.26
2022-10-18T16:56:47.853Z,13.16
2022-10-18T16:59:26.854Z,13.05
2022-10-18T17:01:53.728Z,13.04
2022-10-18T17:04:20.480Z,13.05
2022-10-18T17:06:49.016Z,12.96
2022-10-18T17:09:16.471Z,13.08
2022-10-18T17:11:43.202Z,13.01
2022-10-18T17:14:09.813Z,12.97
2022-10-18T17:16:38.876Z,12.49
2022-10-18T17:19:08.068Z,12.74
2022-10-18T17:21:35.319Z,12.61
2022-10-18T17:24:03.263Z,12.54
2022-10-18T17:26:30.630Z,12.48
2022-10-18T17:29:03.945Z,12.39
2022-10-18T17:31:32.289Z,12.34
2022-10-18T17:34:01.561Z,12.32
2022-10-18T17:36:29.824Z,12.24
2022-10-18T17:38:56.595Z,11.86
2022-10-18T17:41:23.343Z,11.92
2022-10-18T17:43:49.988Z,11.62
2022-10-18T17:46:17.874Z,11.48
2022-10-18T17:48:44.678Z,10.94
2022-10-18T17:51:14.874Z,11.38
2022-10-18T17:53:41.523Z,10.86
2022-10-18T17:56:09.349Z,11.31
2022-10-18T17:58:36.118Z,11.29
2022-10-18T18:01:28.946Z,11.17
2022-10-18T18:03:57.313Z,11.15
2022-10-18T18:06:37.411Z,11.09
2022-10-18T18:09:10.853Z,10.95
2022-10-18T18:11:38.315Z,10.98
2022-10-18T18:14:09.025Z,10.91
2022-10-18T18:16:41.483Z,10.94
2022-10-18T18:19:09.946Z,10.66
2022-10-18T18:21:37.260Z,10.81
2022-10-18T18:24:04.518Z,10.77
2022-10-18T18:26:32.869Z,10.76
2022-10-18T18:29:00.113Z,10.80
2022-10-18T18:31:30.711Z,10.38
2022-10-18T18:34:01.008Z,10.57
2022-10-18T18:36:32.567Z,10.49
2022-10-18T18:38:59.529Z,10.33
2022-10-18T18:41:27.988Z,10.43
2022-10-18T18:44:02.115Z,10.32
2022-10-18T18:46:33.174Z,10.25
2022-10-18T18:49:00.217Z,10.13
2022-10-18T18:51:26.913Z,10.17
2022-10-18T18:53:53.840Z,10.22
2022-10-18T18:56:23.557Z,10.19
2022-10-18T18:58:52.161Z,10.16
2022-10-18T19:01:27.469Z,9.84
2022-10-18T19:03:56.132Z,9.77
2022-10-18T19:06:25.428Z,9.89
2022-10-18T19:09:00.837Z,10.02
2022-10-18T19:11:31.263Z,9.88
2022-10-18T19:13:58.731Z,9.91
2022-10-18T19:16:26.809Z,9.86
2022-10-18T19:19:12.784Z,9.76
2022-10-18T19:21:45.523Z,8.74
2022-10-18T19:24:13.055Z,9.60
2022-10-18T19:26:44.850Z,9.57
2022-10-18T19:29:22.246Z,9.44
2022-10-18T19:31:52.726Z,9.40
2022-10-18T19:34:20.610Z,9.31
2022-10-18T19:36:48.791Z,9.25
2022-10-18T19:39:24.388Z,8.88
2022-10-18T19:41:56.706Z,9.40
2022-10-18T19:44:25.202Z,9.31
2022-10-18T19:46:51.893Z,8.76
2022-10-18T19:49:18.562Z,9.18
2022-10-18T19:51:45.428Z,9.04
2022-10-18T19:54:13.215Z,9.13
2022-10-18T19:56:41.757Z,9.12
2022-10-18T19:59:09.370Z,9.06
2022-10-18T20:01:36.235Z,9.02
2022-10-18T20:04:07.294Z,8.89
2022-10-18T20:06:34.805Z,8.84
2022-10-18T20:09:01.814Z,8.53
2022-10-18T20:11:29.449Z,8.66
2022-10-18T20:13:56.727Z,8.56
2022-10-18T20:16:28.366Z,8.45
2022-10-18T20:18:57.300Z,8.22
2022-10-18T20:21:24.044Z,8.35
2022-10-18T20:23:50.628Z,8.43
2022-10-18T20:26:20.802Z,7.36
2022-10-18T20:28:57.382Z,8.41
2022-10-18T20:31:27.187Z,8.36
2022-10-18T20:33:58.777Z,8.19
2022-10-18T20:36:27.347Z,8.08
2022-10-18T20:38:54.928Z,8.13
2022-10-18T20:41:25.013Z,8.10
2022-10-18T20:43:53.659Z,8.10
2022-10-18T20:46:20.784Z,7.93
2022-10-18T20:48:48.766Z,8.01
2022-10-18T20:51:17.011Z,8.00
2022-10-18T20:53:43.767Z,7.81
2022-10-18T20:56:13.319Z,8.02
2022-10-18T20:58:41.743Z,7.79
2022-10-18T21:01:11.157Z,7.91
2022-10-18T21:03:39.671Z,7.99
2022-10-18T21:06:13.691Z,7.32
2022-10-18T21:08:40.398Z,7.89
2022-10-18T21:11:07.510Z,7.96
2022-10-18T21:13:34.628Z,7.65
2022-10-18T21:16:02.398Z,7.92
2022-10-18T21:18:31.733Z,7.90
2022-10-18T21:21:16.046Z,7.89
2022-10-18T21:23:42.765Z,7.84
2022-10-18T21:26:15.971Z,7.54
2022-10-18T21:28:43.048Z,7.94
2022-10-18T21:31:12.767Z,7.80
2022-10-18T21:33:41.005Z,6.52
2022-10-18T21:36:08.048Z,7.60
2022-10-18T21:38:34.702Z,7.57
2022-10-18T21:41:01.741Z,7.60
2022-10-18T21:43:28.483Z,7.58
2022-10-18T21:46:00.044Z,7.42
2022-10-18T21:48:27.689Z,7.57
2022-10-18T21:50:54.877Z,7.46
2022-10-18T21:53:21.901Z,7.34
2022-10-18T21:55:49.069Z,6.99
2022-10-18T21:58:15.636Z,7.16
2022-10-18T22:00:42.265Z,6.45
2022-10-18T22:03:13.761Z,6.43
2022-10-18T22:05:40.408Z,7.15
2022-10-18T22:08:07.554Z,7.10
2022-10-18T22:10:34.209Z,6.71
2022-10-18T22:13:01.457Z,6.66
2022-10-18T22:15:28.095Z,6.36
2022-10-18T22:17:54.708Z,7.08
2022-10-18T22:20:21.284Z,6.85
2022-10-18T22:22:47.843Z,6.98
2022-10-18T22:25:14.460Z,6.94
2022-10-18T22:27:41.243Z,6.88
2022-10-18T22:30:08.310Z,5.74
2022-10-18T22:32:34.860Z,6.40
2022-10-18T22:35:01.449Z,6.72
2022-10-18T22:37:28.072Z,6.94
2022-10-18T22:39:54.648Z,6.80
2022-10-18T22:42:21.339Z,6.88
2022-10-18T22:44:47.955Z,6.54
2022-10-18T22:47:14.580Z,6.74
2022-10-18T22:49:41.230Z,6.85
2022-10-18T22:52:07.822Z,7.01
2022-10-18T22:54:34.413Z,6.95
2022-10-18T22:57:01.020Z,6.26
2022-10-18T22:59:27.602Z,6.54
2022-10-18T23:01:54.160Z,6.47
2022-10-18T23:04:20.759Z,6.88
2022-10-18T23:06:47.400Z,6.79
2022-10-18T23:09:14.064Z,6.52
2022-10-18T23:11:40.688Z,6.39
2022-10-18T23:14:07.721Z,6.43
2022-10-18T23:16:34.654Z,5.96
2022-10-18T23:19:01.309Z,5.78
2022-10-18T23:21:28.837Z,6.41
2022-10-18T23:23:56.713Z,5.86
2022-10-18T23:26:26.178Z,6.10
2022-10-18T23:28:54.204Z,5.73
2022-10-18T23:31:23.973Z,6.04
2022-10-18T23:33:52.782Z,6.23
2022-10-18T23:36:19.583Z,5.78
2022-10-18T23:38:46.258Z,6.17
2022-10-18T23:41:14.748Z,5.75
2022-10-18T23:43:42.105Z,6.28
2022-10-18T23:46:09.660Z,5.93
2022-10-18T23:48:36.719Z,6.04
2022-10-18T23:51:03.875Z,6.32
2022-10-18T23:53:31.113Z,6.25
2022-10-18T23:55:57.710Z,6.26
2022-10-18T23:58:25.322Z,6.32
